JTC232 KBOI-CYVR
Flight info
| Callsign | JTC232 |
|---|---|
| Flight time | N/A |
| Altitude | 40000 |
| Route | OLAAH DCT PREIS DCT BKE DCT SUNED DCT YKM DCT PAE GRIZZ9 |
| Aircraft | C750/M-SBDE3FGHRWXY/S |
Departure
| Time | 2026-05-04 22:48 |
|---|---|
| Airport | Boise Air Terminal/Gowen Field (KBOI) |
Arrival
| Time | N/A |
|---|---|
| Airport | Vancouver International Airport (CYVR) |
| Time | Latitude | Longitude | Altitude | Speed | Heading |
|---|---|---|---|---|---|
| 2026-05-04 22:39 | 43.57002 | -116.22947 | 2878 ft | 0 kts | 2° |
| 2026-05-04 22:42 | 43.57004 | -116.22947 | 2878 ft | 2 kts | 2° |
| 2026-05-04 22:42 | 43.57031 | -116.22897 | 2878 ft | 11 kts | 91° |
| 2026-05-04 22:43 | 43.57024 | -116.22782 | 2878 ft | 7 kts | 117° |
| 2026-05-04 22:43 | 43.56971 | -116.22798 | 2878 ft | 13 kts | 205° |
| 2026-05-04 22:43 | 43.56894 | -116.22852 | 2877 ft | 12 kts | 209° |
| 2026-05-04 22:43 | 43.56845 | -116.22823 | 2877 ft | 8 kts | 115° |
| 2026-05-04 22:44 | 43.56808 | -116.22711 | 2878 ft | 18 kts | 115° |
| 2026-05-04 22:44 | 43.56755 | -116.22557 | 2877 ft | 17 kts | 115° |
| 2026-05-04 22:44 | 43.56706 | -116.22414 | 2878 ft | 17 kts | 115° |
| 2026-05-04 22:44 | 43.56655 | -116.22264 | 2877 ft | 17 kts | 115° |
| 2026-05-04 22:45 | 43.56603 | -116.22112 | 2878 ft | 17 kts | 115° |
| 2026-05-04 22:45 | 43.56509 | -116.21836 | 2877 ft | 15 kts | 115° |
| 2026-05-04 22:45 | 43.56467 | -116.21715 | 2878 ft | 13 kts | 115° |
| 2026-05-04 22:46 | 43.56423 | -116.21585 | 2878 ft | 18 kts | 115° |
| 2026-05-04 22:46 | 43.56364 | -116.21412 | 2878 ft | 22 kts | 115° |
| 2026-05-04 22:46 | 43.56300 | -116.21226 | 2878 ft | 20 kts | 115° |
| 2026-05-04 22:46 | 43.56242 | -116.21056 | 2879 ft | 19 kts | 116° |
| 2026-05-04 22:47 | 43.56189 | -116.20898 | 2878 ft | 16 kts | 116° |
| 2026-05-04 22:47 | 43.56125 | -116.20872 | 2878 ft | 10 kts | 201° |
| 2026-05-04 22:47 | 43.56051 | -116.20922 | 2878 ft | 16 kts | 208° |
| 2026-05-04 22:47 | 43.55936 | -116.20998 | 2878 ft | 18 kts | 206° |
| 2026-05-04 22:48 | 43.55937 | -116.21137 | 2877 ft | 27 kts | 294° |
| 2026-05-04 22:48 | 43.56177 | -116.21841 | 2878 ft | 129 kts | 295° |
| 2026-05-04 22:48 | 43.56618 | -116.23090 | 3184 ft | 158 kts | 297° |
| 2026-05-04 22:48 | 43.57104 | -116.24558 | 3580 ft | 180 kts | 294° |
| 2026-05-04 22:49 | 43.57654 | -116.26240 | 4021 ft | 205 kts | 295° |
| 2026-05-04 22:49 | 43.58356 | -116.28063 | 4368 ft | 229 kts | 308° |
| 2026-05-04 22:49 | 43.59740 | -116.29347 | 4693 ft | 259 kts | 335° |
| 2026-05-04 22:49 | 43.61431 | -116.30368 | 5353 ft | 265 kts | 335° |
| 2026-05-04 22:50 | 43.63053 | -116.31573 | 6424 ft | 267 kts | 329° |
| 2026-05-04 22:50 | 43.64653 | -116.32950 | 7372 ft | 272 kts | 328° |
| 2026-05-04 22:50 | 43.66279 | -116.34306 | 8516 ft | 274 kts | 330° |
| 2026-05-04 22:50 | 43.67949 | -116.35638 | 9561 ft | 281 kts | 330° |
| 2026-05-04 22:51 | 43.69655 | -116.37008 | 10360 ft | 290 kts | 329° |
| 2026-05-04 22:51 | 43.71470 | -116.38487 | 10651 ft | 316 kts | 329° |
| 2026-05-04 22:51 | 43.73451 | -116.40104 | 10785 ft | 344 kts | 329° |
| 2026-05-04 22:51 | 43.75535 | -116.41796 | 11488 ft | 348 kts | 329° |
| 2026-05-04 22:52 | 43.77636 | -116.43503 | 12258 ft | 352 kts | 329° |
| 2026-05-04 22:52 | 43.79758 | -116.45232 | 13025 ft | 355 kts | 329° |
| 2026-05-04 22:52 | 43.81902 | -116.46982 | 13733 ft | 360 kts | 329° |
| 2026-05-04 22:52 | 43.84067 | -116.48748 | 14414 ft | 363 kts | 329° |
| 2026-05-04 22:53 | 43.86257 | -116.50535 | 15043 ft | 367 kts | 329° |
| 2026-05-04 22:53 | 43.88435 | -116.52316 | 15715 ft | 370 kts | 329° |
| 2026-05-04 22:53 | 43.90664 | -116.54139 | 16377 ft | 374 kts | 329° |
| 2026-05-04 22:53 | 43.92916 | -116.55983 | 17085 ft | 377 kts | 329° |
| 2026-05-04 22:54 | 43.95190 | -116.57846 | 17784 ft | 382 kts | 329° |
| 2026-05-04 22:54 | 43.97491 | -116.59734 | 18458 ft | 385 kts | 329° |
| 2026-05-04 22:54 | 43.99809 | -116.61637 | 19125 ft | 389 kts | 329° |
| 2026-05-04 22:54 | 44.02149 | -116.63560 | 19836 ft | 392 kts | 329° |
| 2026-05-04 22:55 | 44.04508 | -116.65499 | 20526 ft | 396 kts | 329° |
| 2026-05-04 22:55 | 44.06890 | -116.67461 | 21228 ft | 399 kts | 329° |
| 2026-05-04 22:55 | 44.09289 | -116.69438 | 21929 ft | 403 kts | 329° |
| 2026-05-04 22:55 | 44.11693 | -116.71465 | 22580 ft | 406 kts | 326° |
| 2026-05-04 22:56 | 44.14045 | -116.73673 | 23226 ft | 410 kts | 325° |
| 2026-05-04 22:56 | 44.16395 | -116.75939 | 23789 ft | 413 kts | 322° |
| 2026-05-04 22:56 | 44.18480 | -116.78720 | 24317 ft | 415 kts | 312° |
| 2026-05-04 22:56 | 44.20400 | -116.81681 | 24875 ft | 418 kts | 312° |
| 2026-05-04 22:57 | 44.22370 | -116.84685 | 25426 ft | 421 kts | 312° |
| 2026-05-04 22:57 | 44.24357 | -116.87709 | 25973 ft | 424 kts | 312° |
| 2026-05-04 22:57 | 44.26348 | -116.90768 | 26523 ft | 428 kts | 312° |
| 2026-05-04 22:57 | 44.28354 | -116.93860 | 27072 ft | 431 kts | 312° |
| 2026-05-04 22:58 | 44.29718 | -116.95957 | 27440 ft | 433 kts | 312° |
| 2026-05-04 22:58 | 44.31754 | -116.99083 | 27985 ft | 437 kts | 312° |
| 2026-05-04 22:58 | 44.33804 | -117.02239 | 28528 ft | 440 kts | 312° |
| 2026-05-04 22:58 | 44.35865 | -117.05420 | 29061 ft | 444 kts | 311° |
| 2026-05-04 22:59 | 44.37943 | -117.08630 | 29590 ft | 447 kts | 311° |
| 2026-05-04 22:59 | 44.40037 | -117.11864 | 30076 ft | 450 kts | 311° |
| 2026-05-04 22:59 | 44.42121 | -117.15088 | 30510 ft | 453 kts | 311° |
| 2026-05-04 22:59 | 44.44238 | -117.18368 | 31030 ft | 454 kts | 311° |
| 2026-05-04 23:00 | 44.46347 | -117.21639 | 31658 ft | 452 kts | 313° |
| 2026-05-04 23:00 | 44.48446 | -117.24899 | 32383 ft | 450 kts | 312° |
| 2026-05-04 23:00 | 44.50539 | -117.28151 | 32995 ft | 449 kts | 312° |
| 2026-05-04 23:00 | 44.52632 | -117.31409 | 33597 ft | 449 kts | 312° |
| 2026-05-04 23:01 | 44.54718 | -117.34659 | 34186 ft | 448 kts | 311° |
| 2026-05-04 23:01 | 44.56804 | -117.37913 | 34747 ft | 447 kts | 311° |
| 2026-05-04 23:01 | 44.58882 | -117.41158 | 35279 ft | 447 kts | 311° |
| 2026-05-04 23:01 | 44.60955 | -117.44401 | 35824 ft | 446 kts | 312° |
| 2026-05-04 23:02 | 44.63035 | -117.47657 | 36236 ft | 449 kts | 312° |
| 2026-05-04 23:02 | 44.65121 | -117.50926 | 36762 ft | 449 kts | 312° |
| 2026-05-04 23:02 | 44.67202 | -117.54190 | 37362 ft | 447 kts | 312° |
| 2026-05-04 23:02 | 44.69275 | -117.57446 | 37909 ft | 447 kts | 312° |
| 2026-05-04 23:03 | 44.71349 | -117.60709 | 38438 ft | 447 kts | 312° |
| 2026-05-04 23:03 | 44.73415 | -117.63963 | 38916 ft | 446 kts | 312° |
| 2026-05-04 23:03 | 44.75483 | -117.67222 | 39314 ft | 447 kts | 312° |
| 2026-05-04 23:03 | 44.77551 | -117.70485 | 39667 ft | 446 kts | 312° |
| 2026-05-04 23:04 | 44.79622 | -117.73757 | 39855 ft | 452 kts | 312° |
| 2026-05-04 23:04 | 44.81735 | -117.77100 | 39853 ft | 462 kts | 312° |
| 2026-05-04 23:04 | 44.86207 | -117.83873 | 39862 ft | 481 kts | 315° |
| 2026-05-04 23:05 | 44.91010 | -117.90665 | 39876 ft | 496 kts | 315° |
| 2026-05-04 23:05 | 44.95885 | -117.97671 | 39867 ft | 503 kts | 315° |
| 2026-05-04 23:06 | 45.00817 | -118.04719 | 39877 ft | 504 kts | 316° |
| 2026-05-04 23:06 | 45.05703 | -118.11750 | 39881 ft | 504 kts | 315° |
| 2026-05-04 23:07 | 45.10627 | -118.18838 | 39896 ft | 504 kts | 316° |
| 2026-05-04 23:07 | 45.15532 | -118.25926 | 39894 ft | 504 kts | 316° |
| 2026-05-04 23:08 | 45.20435 | -118.33027 | 39903 ft | 504 kts | 316° |
| 2026-05-04 23:08 | 45.25331 | -118.40137 | 39909 ft | 504 kts | 316° |
| 2026-05-04 23:09 | 45.30230 | -118.47270 | 39903 ft | 503 kts | 316° |
| 2026-05-04 23:09 | 45.35114 | -118.54401 | 39904 ft | 503 kts | 316° |
| 2026-05-04 23:10 | 45.39992 | -118.61540 | 39880 ft | 503 kts | 316° |
| 2026-05-04 23:10 | 45.44860 | -118.68684 | 39853 ft | 503 kts | 316° |
| 2026-05-04 23:11 | 45.49725 | -118.75842 | 39843 ft | 502 kts | 316° |
| 2026-05-04 23:11 | 45.54578 | -118.83001 | 39831 ft | 502 kts | 316° |
| 2026-05-04 23:12 | 45.59388 | -118.90117 | 39826 ft | 502 kts | 316° |
| 2026-05-04 23:12 | 45.64243 | -118.97318 | 39825 ft | 503 kts | 316° |
| 2026-05-04 23:13 | 45.69084 | -119.04517 | 39822 ft | 502 kts | 316° |
| 2026-05-04 23:13 | 45.73915 | -119.11720 | 39793 ft | 501 kts | 316° |
| 2026-05-04 23:14 | 45.78741 | -119.18935 | 39788 ft | 501 kts | 316° |
| 2026-05-04 23:14 | 45.83557 | -119.26156 | 39789 ft | 501 kts | 316° |
| 2026-05-04 23:15 | 45.88363 | -119.33380 | 39791 ft | 500 kts | 316° |
| 2026-05-04 23:15 | 45.93160 | -119.40609 | 39791 ft | 500 kts | 316° |
| 2026-05-04 23:16 | 45.97950 | -119.47848 | 39789 ft | 499 kts | 316° |
| 2026-05-04 23:16 | 46.02731 | -119.55092 | 39787 ft | 498 kts | 316° |
| 2026-05-04 23:17 | 46.07493 | -119.62329 | 39781 ft | 498 kts | 316° |
| 2026-05-04 23:17 | 46.12223 | -119.69535 | 39781 ft | 498 kts | 316° |
| 2026-05-04 23:18 | 46.16974 | -119.76793 | 39784 ft | 498 kts | 316° |
| 2026-05-04 23:18 | 46.21701 | -119.84032 | 39785 ft | 495 kts | 316° |
| 2026-05-04 23:19 | 46.26418 | -119.91275 | 39791 ft | 494 kts | 316° |
| 2026-05-04 23:19 | 46.31041 | -119.98665 | 39794 ft | 496 kts | 313° |
| 2026-05-04 23:20 | 46.35411 | -120.06382 | 39788 ft | 495 kts | 313° |
| 2026-05-04 23:20 | 46.39809 | -120.14050 | 39790 ft | 494 kts | 313° |
| 2026-05-04 23:21 | 46.44154 | -120.21709 | 39787 ft | 495 kts | 313° |
| 2026-05-04 23:21 | 46.48522 | -120.29404 | 39781 ft | 494 kts | 313° |
| 2026-05-04 23:22 | 46.52862 | -120.37079 | 39788 ft | 491 kts | 313° |
| 2026-05-04 23:22 | 46.57252 | -120.44686 | 39778 ft | 489 kts | 317° |
| 2026-05-04 23:23 | 46.62262 | -120.51304 | 39796 ft | 487 kts | 321° |
| 2026-05-04 23:23 | 46.67276 | -120.57942 | 39797 ft | 487 kts | 321° |
| 2026-05-04 23:24 | 46.72294 | -120.64540 | 39798 ft | 486 kts | 321° |
| 2026-05-04 23:24 | 46.77305 | -120.71174 | 39800 ft | 487 kts | 321° |
| 2026-05-04 23:25 | 46.82325 | -120.77826 | 39826 ft | 487 kts | 321° |
| 2026-05-04 23:25 | 46.87338 | -120.84490 | 39837 ft | 487 kts | 321° |
| 2026-05-04 23:26 | 46.92346 | -120.91167 | 39832 ft | 487 kts | 321° |
| 2026-05-04 23:26 | 46.97350 | -120.97853 | 39837 ft | 486 kts | 321° |
| 2026-05-04 23:27 | 46.99820 | -121.01167 | 39796 ft | 473 kts | 322° |
| 2026-05-04 23:27 | 47.02238 | -121.04414 | 39868 ft | 471 kts | 322° |
| 2026-05-04 23:27 | 47.07099 | -121.10923 | 39882 ft | 476 kts | 322° |
| 2026-05-04 23:28 | 47.11942 | -121.17462 | 39894 ft | 476 kts | 322° |
| 2026-05-04 23:28 | 47.16825 | -121.24046 | 39878 ft | 475 kts | 322° |
| 2026-05-04 23:29 | 47.21693 | -121.30642 | 39901 ft | 476 kts | 322° |
| 2026-05-04 23:29 | 47.26557 | -121.37243 | 39918 ft | 476 kts | 322° |
| 2026-05-04 23:30 | 47.31428 | -121.43873 | 39917 ft | 477 kts | 322° |
| 2026-05-04 23:30 | 47.36289 | -121.50506 | 39927 ft | 476 kts | 322° |
| 2026-05-04 23:31 | 47.41151 | -121.57158 | 39932 ft | 475 kts | 322° |
| 2026-05-04 23:31 | 47.43564 | -121.60469 | 39824 ft | 468 kts | 322° |
| 2026-05-04 23:31 | 47.45883 | -121.63668 | 39264 ft | 445 kts | 322° |
| 2026-05-04 23:32 | 47.48113 | -121.66734 | 38684 ft | 433 kts | 323° |
| 2026-05-04 23:32 | 47.50306 | -121.69732 | 38065 ft | 427 kts | 323° |
| 2026-05-04 23:32 | 47.52491 | -121.72730 | 37523 ft | 431 kts | 323° |
| 2026-05-04 23:32 | 47.54669 | -121.75737 | 36950 ft | 436 kts | 322° |
| 2026-05-04 23:33 | 47.56887 | -121.78810 | 36377 ft | 438 kts | 322° |
| 2026-05-04 23:33 | 47.59115 | -121.81892 | 35800 ft | 440 kts | 322° |
| 2026-05-04 23:33 | 47.61361 | -121.84994 | 35217 ft | 442 kts | 322° |
| 2026-05-04 23:33 | 47.63613 | -121.88115 | 34623 ft | 445 kts | 322° |
| 2026-05-04 23:34 | 47.65874 | -121.91255 | 34036 ft | 447 kts | 322° |
| 2026-05-04 23:34 | 47.68143 | -121.94410 | 33453 ft | 447 kts | 322° |
| 2026-05-04 23:34 | 47.70421 | -121.97577 | 32860 ft | 449 kts | 322° |
| 2026-05-04 23:34 | 47.72709 | -122.00762 | 32268 ft | 453 kts | 321° |
| 2026-05-04 23:35 | 47.75010 | -122.03972 | 31661 ft | 454 kts | 321° |
| 2026-05-04 23:35 | 47.77322 | -122.07202 | 31056 ft | 456 kts | 321° |
| 2026-05-04 23:35 | 47.79638 | -122.10441 | 30463 ft | 459 kts | 321° |
| 2026-05-04 23:35 | 47.81965 | -122.13698 | 29840 ft | 461 kts | 320° |
| 2026-05-04 23:36 | 47.84309 | -122.16983 | 29212 ft | 463 kts | 320° |
| 2026-05-04 23:36 | 47.86627 | -122.20244 | 28604 ft | 457 kts | 320° |
| 2026-05-04 23:36 | 47.88930 | -122.23479 | 28004 ft | 452 kts | 320° |
| 2026-05-04 23:36 | 47.91400 | -122.26292 | 27390 ft | 443 kts | 332° |
| 2026-05-04 23:37 | 47.94168 | -122.28208 | 26818 ft | 436 kts | 342° |
| 2026-05-04 23:37 | 47.97095 | -122.29269 | 26261 ft | 431 kts | 350° |
| 2026-05-04 23:37 | 48.00030 | -122.30099 | 25698 ft | 428 kts | 350° |
| 2026-05-04 23:37 | 48.02909 | -122.30925 | 25141 ft | 425 kts | 350° |
| 2026-05-04 23:38 | 48.05804 | -122.31771 | 24558 ft | 422 kts | 350° |
| 2026-05-04 23:38 | 48.08672 | -122.32606 | 24005 ft | 419 kts | 350° |
| 2026-05-04 23:38 | 48.11511 | -122.33425 | 23454 ft | 413 kts | 350° |
| 2026-05-04 23:38 | 48.14330 | -122.34242 | 22871 ft | 411 kts | 350° |
| 2026-05-04 23:39 | 48.17128 | -122.35056 | 22330 ft | 408 kts | 350° |
| 2026-05-04 23:39 | 48.19911 | -122.35867 | 21793 ft | 406 kts | 350° |
| 2026-05-04 23:39 | 48.22676 | -122.36672 | 21262 ft | 404 kts | 350° |
| 2026-05-04 23:39 | 48.25428 | -122.37474 | 20732 ft | 402 kts | 349° |
| 2026-05-04 23:40 | 48.28165 | -122.38273 | 20216 ft | 398 kts | 349° |
| 2026-05-04 23:40 | 48.30875 | -122.39066 | 19673 ft | 396 kts | 349° |
| 2026-05-04 23:40 | 48.33572 | -122.39855 | 19150 ft | 394 kts | 349° |
| 2026-05-04 23:40 | 48.36224 | -122.40631 | 18636 ft | 392 kts | 349° |
| 2026-05-04 23:41 | 48.38895 | -122.41415 | 18108 ft | 390 kts | 349° |
| 2026-05-04 23:41 | 48.41551 | -122.42195 | 17570 ft | 388 kts | 349° |
| 2026-05-04 23:41 | 48.44202 | -122.42974 | 17057 ft | 386 kts | 349° |
| 2026-05-04 23:41 | 48.46835 | -122.43749 | 16633 ft | 384 kts | 349° |
| 2026-05-04 23:42 | 48.49458 | -122.44521 | 16162 ft | 384 kts | 349° |
| 2026-05-04 23:42 | 48.52071 | -122.45291 | 15671 ft | 379 kts | 349° |
| 2026-05-04 23:42 | 48.54557 | -122.46026 | 15186 ft | 349 kts | 349° |
| 2026-05-04 23:42 | 48.56857 | -122.46706 | 14741 ft | 324 kts | 349° |
| 2026-05-04 23:43 | 48.59003 | -122.47340 | 14325 ft | 304 kts | 349° |
| 2026-05-04 23:43 | 48.61037 | -122.47941 | 13940 ft | 294 kts | 349° |
| 2026-05-04 23:43 | 48.63045 | -122.48536 | 13534 ft | 293 kts | 349° |
| 2026-05-04 23:43 | 48.65038 | -122.49127 | 13137 ft | 290 kts | 349° |
| 2026-05-04 23:44 | 48.66351 | -122.49516 | 12885 ft | 289 kts | 349° |
| 2026-05-04 23:44 | 48.68321 | -122.50101 | 12503 ft | 288 kts | 349° |
| 2026-05-04 23:44 | 48.70259 | -122.50823 | 12085 ft | 287 kts | 339° |
| 2026-05-04 23:44 | 48.71898 | -122.52506 | 11993 ft | 289 kts | 319° |
| 2026-05-04 23:45 | 48.73595 | -122.55637 | 12024 ft | 291 kts | 309° |
| 2026-05-04 23:45 | 48.74829 | -122.58076 | 12019 ft | 292 kts | 309° |
| 2026-05-04 23:45 | 48.76075 | -122.60506 | 12019 ft | 292 kts | 310° |
| 2026-05-04 23:45 | 48.77324 | -122.62928 | 12025 ft | 291 kts | 310° |
| 2026-05-04 23:46 | 48.78171 | -122.64576 | 11816 ft | 294 kts | 310° |
| 2026-05-04 23:46 | 48.79420 | -122.67018 | 11350 ft | 292 kts | 310° |
| 2026-05-04 23:46 | 48.80659 | -122.69443 | 10855 ft | 289 kts | 310° |
| 2026-05-04 23:46 | 48.81888 | -122.71846 | 10368 ft | 288 kts | 310° |
| 2026-05-04 23:47 | 48.83111 | -122.74238 | 9891 ft | 286 kts | 310° |
| 2026-05-04 23:47 | 48.84326 | -122.76619 | 9400 ft | 284 kts | 310° |
| 2026-05-04 23:47 | 48.85529 | -122.78977 | 8937 ft | 281 kts | 310° |
| 2026-05-04 23:47 | 48.86720 | -122.81317 | 8474 ft | 279 kts | 309° |
| 2026-05-04 23:48 | 48.87904 | -122.83641 | 8018 ft | 276 kts | 309° |
| 2026-05-04 23:48 | 48.89060 | -122.85914 | 7517 ft | 267 kts | 308° |
| 2026-05-04 23:48 | 48.90165 | -122.88089 | 7035 ft | 260 kts | 308° |
| 2026-05-04 23:48 | 48.91257 | -122.90239 | 6551 ft | 254 kts | 308° |
| 2026-05-04 23:49 | 48.92327 | -122.92348 | 6063 ft | 249 kts | 308° |
| 2026-05-04 23:49 | 48.93374 | -122.94421 | 5558 ft | 246 kts | 307° |
| 2026-05-04 23:49 | 48.94413 | -122.96478 | 5063 ft | 244 kts | 307° |
| 2026-05-04 23:49 | 48.95463 | -122.98485 | 4640 ft | 241 kts | 311° |
| 2026-05-04 23:50 | 48.96888 | -122.99824 | 4224 ft | 245 kts | 341° |
| 2026-05-04 23:50 | 48.98576 | -122.99959 | 3862 ft | 247 kts | 9° |
| 2026-05-04 23:50 | 49.00122 | -122.98855 | 3535 ft | 248 kts | 34° |
| 2026-05-04 23:50 | 49.01491 | -122.97252 | 3299 ft | 249 kts | 37° |
| 2026-05-04 23:51 | 49.02854 | -122.95635 | 3072 ft | 247 kts | 37° |
| 2026-05-04 23:51 | 49.04214 | -122.94052 | 3015 ft | 246 kts | 36° |
| 2026-05-04 23:51 | 49.05578 | -122.92466 | 3013 ft | 246 kts | 37° |
| 2026-05-04 23:51 | 49.06877 | -122.90752 | 2966 ft | 250 kts | 50° |
| 2026-05-04 23:52 | 49.07500 | -122.88324 | 2960 ft | 248 kts | 83° |
| 2026-05-04 23:52 | 49.07524 | -122.85688 | 3020 ft | 252 kts | 91° |
| 2026-05-04 23:52 | 49.07472 | -122.83028 | 3015 ft | 249 kts | 92° |
| 2026-05-04 23:52 | 49.07436 | -122.80389 | 3013 ft | 248 kts | 91° |
| 2026-05-04 23:53 | 49.07262 | -122.77771 | 2993 ft | 248 kts | 101° |
| 2026-05-04 23:53 | 49.07142 | -122.75150 | 2926 ft | 250 kts | 79° |
| 2026-05-04 23:53 | 49.07991 | -122.72941 | 2909 ft | 248 kts | 40° |
| 2026-05-04 23:53 | 49.09549 | -122.71940 | 2960 ft | 245 kts | 9° |
| 2026-05-04 23:54 | 49.11269 | -122.71591 | 3020 ft | 247 kts | 6° |
| 2026-05-04 23:54 | 49.12945 | -122.71548 | 2955 ft | 245 kts | 346° |
| 2026-05-04 23:54 | 49.14291 | -122.72891 | 2948 ft | 223 kts | 307° |
| 2026-05-04 23:54 | 49.15048 | -122.74938 | 3011 ft | 220 kts | 296° |
| 2026-05-04 23:55 | 49.15612 | -122.77123 | 2997 ft | 222 kts | 285° |
| 2026-05-04 23:55 | 49.15900 | -122.79422 | 3000 ft | 221 kts | 279° |
| 2026-05-04 23:55 | 49.16416 | -122.83993 | 3011 ft | 229 kts | 279° |
| 2026-05-04 23:56 | 49.16691 | -122.86412 | 2994 ft | 233 kts | 279° |
| 2026-05-04 23:56 | 49.16969 | -122.88855 | 2997 ft | 234 kts | 279° |
| 2026-05-04 23:56 | 49.17248 | -122.91310 | 3010 ft | 226 kts | 279° |
| 2026-05-04 23:56 | 49.17515 | -122.93649 | 2845 ft | 222 kts | 279° |
| 2026-05-04 23:57 | 49.17769 | -122.95873 | 2577 ft | 204 kts | 279° |
| 2026-05-04 23:57 | 49.18003 | -122.97919 | 2299 ft | 181 kts | 279° |
| 2026-05-04 23:57 | 49.18207 | -122.99713 | 2063 ft | 168 kts | 277° |
| 2026-05-04 23:57 | 49.18409 | -123.01490 | 1857 ft | 169 kts | 277° |
| 2026-05-04 23:58 | 49.18615 | -123.03287 | 1654 ft | 169 kts | 277° |
| 2026-05-04 23:58 | 49.18800 | -123.04890 | 1440 ft | 137 kts | 276° |
| 2026-05-04 23:58 | 49.18950 | -123.06258 | 1267 ft | 129 kts | 277° |
| 2026-05-04 23:58 | 49.19101 | -123.07585 | 1122 ft | 127 kts | 277° |
| 2026-05-04 23:59 | 49.19256 | -123.08965 | 936 ft | 134 kts | 277° |
| 2026-05-04 23:59 | 49.19412 | -123.10347 | 780 ft | 130 kts | 277° |
| 2026-05-04 23:59 | 49.19568 | -123.11716 | 608 ft | 132 kts | 278° |
| 2026-05-04 23:59 | 49.19720 | -123.13075 | 432 ft | 129 kts | 277° |
| 2026-05-05 00:00 | 49.19873 | -123.14408 | 304 ft | 126 kts | 277° |
| 2026-05-05 00:00 | 49.19974 | -123.15282 | 168 ft | 126 kts | 276° |
| 2026-05-05 00:00 | 49.20167 | -123.17000 | 24 ft | 113 kts | 277° |
| 2026-05-05 00:00 | 49.20270 | -123.17925 | 17 ft | 56 kts | 279° |